Terminal Aerodrome Forecast
Issued by NWS Amarillo, TX

Home | Current Version | Previous Version | Text Only | Print | Product List | Glossary On
Versions: 1 2 3 4 5 6 7 8 9 10 11 12 13 14 15 16 17 18 19 20 21 22 23 24 25
000
FTUS44 KAMA 010200 AAA
TAFDHT
TAF AMD
KDHT 010200Z 0102/0124 22010KT P6SM OVC025
     FM010600 36012KT P6SM SCT010 BKN050
     FM011200 36018G28KT P6SM SCT050=

USA.gov is the U.S. government's official web portal to all federal, state and local government web resources and services.